Aérodrome :
LOGIN :

S'inscrire | Disclaimer

   EN    FR    IT 

 










Légende :    VFR   VFR Marginal   IFR   IFR Intensif   IFR Très Intensif
Visi : 
Plafond : 
>= 8 km
>= 3000ft
5 à 8 km
1000 à 3000 ft
1500m à 5 km
500 à 1000 ft
800 à 1500m
200 à 500 ft
< 800m
< 200 ft
Symboles :   Orages  Brouillard  Fortes neiges  Fortes précipitations  Vent > 20 kt
SIGMETs :   Divers  Orages  Givrage  Turbulence  Onde Orograph.  Cendres Volcan.






- Altitude de l'aérodrome : 1416 ft
- Code IATA : ZRH


LSZH - Zurich

DERNIER METAR :
  • 171720Z 27006KT 9999 VCSH SCT011 BKN014 BKN030 02/M00 Q1022 R88/29 TEMPO 4000 -SHSNRA BKN008

METARs EXPIRÉS :
  • 171650Z 27005KT 9999 FEW009 BKN012 01/M00 Q1022 R88/29 TEMPO 4000 -SHSNRA BKN008
  • 171620Z 24006KT 9999 FEW009 BKN012 BKN060 01/M00 Q1021 R88/29 NOSIG
  • 171550Z 26006KT 9999 -SNRA FEW009 BKN011 BKN055 01/M00 Q1021 R88/29//// TEMPO 4000 -SNRA BKN008
  • 171520Z 26006KT 9999 -RADZ SCT009 BKN012 02/M00 Q1020 R88/29//// TEMPO 4000 -SNRA BKN008
  • 171450Z 24004KT 210V270 9999 FEW007 BKN012 BKN017 02/00 Q1020 R88/29//// TEMPO 4000 -SNRA BKN008

TAF TAF LSZH
Valide du 17 à 18h jusqu'au 19 à 00h UTC


171725Z 1718/1824 27005KT 9999 FEW010 BKN012 TX03/1814Z TNM01/1821Z
PROB30
TEMPO 1718/1720 2000 -SHSN BKN006
PROB30
TEMPO 1800/1803 2000 -SN BKN006
BECMG 1821/1824 4000 BR
ATIS : +41 43 816 2295 (DEP) +41 43 816 2294 (ARR)



MET'MAP, la Météo Aéronautique d'un coup d'oeil ! - Copyright ORBIFLY Décembre 2007 - Disclaimer

ORBIFLY MET'MAP TEAM :

Programmation & Développement : Alexandra Zaïnal
Sur une idée originale de : Baudouin d'Aumeries
Assistance à la programmation : Marc-Olivier Méhu
Soutien technique & logistique : Manuel Goepfert

Contact : metmap@orbifly.com




SOURCES & CREDITS :

   NOAA